Pagrindinis puslapis
METAR-TAF:

METAR-TAF

Oro uostai :

Skaka, Saudo Arabija

platuma: 29-47N, ilguma: 040-06E, Aukštis: 689 m

Dabartinis oras

Ataskaita buvo paskelbta 44 minutes, ne 14:00 UTC
Vėjas 11 kt iš Šiaurės/Šiaurės Vakarų
Temperatūra 37°C
Drėgmė 10%
Slėgis 1016 hPa
Matomumas 10 km arba daugiau
nėra debesų žemiau 1500 m ir nėra kamuolinių lietaus debesų

METAR: OESK 281400Z 33011KT CAVOK 37/01 Q1016

Laikas: 17:44 (14:44 UTC)

Prognozė

Ataskaita buvo paskelbta 3 valandos ir 44 minutes, ne 11:00 UTC
Prognozė galioja nuo 28 metu 12 UTC su 29 metu 18 UTC
Vėjas 14 kt iš Šiaurės/Šiaurės Vakarų
Matomumas 10 km arba daugiau
nėra debesų žemiau 1500 m ir nėra kamuolinių lietaus debesų
Tapsmas
nuo 28 metu 18 UTC su 28 metu 20 UTC
Vėjas 3 kt nuo kintamojo kryptimis

TAF: OESK 281100Z 2812/2918 34014KT CAVOK BECMG 2818/2820 VRB03KT

Orai ataskaitas ir orų prognozės (METAR, TAF).

turimą stotys yra geltonos ir raudonos taškus žemėlapyje.

Perkelti pele per norėdami pamatyti stoties vardą.

Tada spustelėkite, norėdami matyti oro stebėjimo ir prognozės.

Norėdami pakeisti žemėlapį: spustelėkite ant žalios mygtukų su juodo kryžiaus žemyn,; žalią mygtuką su brūkšneliu, jei norite nutolinti; arba žalių rodyklių gretimoms žemėlapius.


METAR-TAF: